Time;durP1;ratioP1;P1;durP2;ratioP2;P2;SDS_P1;SDS_P2;PMS_P1;PMS_P2;Temp;Humidity;BMP_temperature;BMP_pressure;BME280_temperature;BME280_humidity;BME280_pressure;Samples;Min_cycle;Max_cycle;Signal;HPM_P1;HPM_P2
2022/01/26 00:06:12;;;;;;;2.27;1.97;;;;;;;2.19;100.00;102214.97;5090641;28;20188;-72
2022/01/26 00:08:39;;;;;;;6.23;4.87;;;;;;;2.15;100.00;102221.00;5091083;28;20260;-72
2022/01/26 00:11:04;;;;;;;5.30;3.23;;;;;;;2.15;100.00;102221.81;5090623;28;20899;-72
2022/01/26 00:13:30;;;;;;;10.90;7.63;;;;;;;2.15;100.00;102219.13;5089549;28;20195;-71
2022/01/26 00:15:57;;;;;;;15.77;5.87;;;;;;;2.14;100.00;102220.16;5089059;28;20205;-72
2022/01/26 00:18:23;;;;;;;8.03;4.53;;;;;;;2.18;100.00;102220.59;5090507;28;20166;-72
2022/01/26 00:20:56;;;;;;;8.83;5.30;;;;;;;2.20;100.00;102224.72;5090472;28;20415;-72
2022/01/26 00:26:11;;;;;;;5.77;4.93;;;;;;;2.19;100.00;102219.53;5090474;28;20497;-72
2022/01/26 00:39:32;;;;;;;4.63;4.20;;;;;;;2.14;100.00;102213.94;5095048;28;20838;-72
2022/01/26 00:41:59;;;;;;;13.57;6.90;;;;;;;2.14;100.00;102216.63;5094799;28;20177;-72
2022/01/26 00:44:32;;;;;;;5.20;4.33;;;;;;;2.16;100.00;102226.16;5094531;28;20176;-73
2022/01/26 00:46:59;;;;;;;3.23;2.17;;;;;;;2.09;100.00;102228.06;5094398;28;20185;-72
2022/01/26 00:49:24;;;;;;;2.13;1.77;;;;;;;2.05;100.00;102221.44;5094310;28;20412;-72
2022/01/26 00:51:51;;;;;;;9.73;4.93;;;;;;;2.02;100.00;102224.53;5094713;28;20202;-72
2022/01/26 00:54:17;;;;;;;4.00;3.70;;;;;;;2.01;100.00;102207.53;5094857;28;20181;-72
2022/01/26 00:56:42;;;;;;;7.40;4.03;;;;;;;1.99;100.00;102206.94;5092677;28;20463;-72
2022/01/26 00:59:08;;;;;;;19.77;6.23;;;;;;;1.98;100.00;102199.88;5092950;28;20197;-72
2022/01/26 01:01:33;;;;;;;7.73;5.07;;;;;;;1.98;100.00;102197.19;5094378;28;20185;-72
2022/01/26 01:03:58;;;;;;;16.07;7.37;;;;;;;2.00;100.00;102199.66;5093168;28;20622;-72
2022/01/26 01:06:30;;;;;;;13.63;7.37;;;;;;;1.99;100.00;102196.16;5092598;28;20203;-72
2022/01/26 01:08:57;;;;;;;15.67;6.57;;;;;;;1.98;100.00;102189.09;5092860;28;20295;-72
2022/01/26 01:11:24;;;;;;;6.27;5.50;;;;;;;1.99;100.00;102198.84;5093947;28;20198;-72
2022/01/26 01:13:50;;;;;;;7.97;5.97;;;;;;;1.99;100.00;102190.75;5092719;28;20173;-72
2022/01/26 01:16:20;;;;;;;7.10;5.47;;;;;;;1.97;100.00;102190.13;5093830;28;20467;-72
2022/01/26 01:18:56;;;;;;;7.93;6.00;;;;;;;1.99;100.00;102188.06;5093861;28;20303;-72
2022/01/26 01:26:49;;;;;;;4.53;3.93;;;;;;;2.01;100.00;102185.16;5093820;28;20199;-73
2022/01/26 01:29:21;;;;;;;9.40;6.97;;;;;;;2.00;100.00;102191.59;5093963;28;20192;-73
2022/01/26 01:34:17;;;;;;;9.63;7.20;;;;;;;2.01;100.00;102194.06;5093642;28;20198;-73
2022/01/26 01:36:45;;;;;;;9.33;6.47;;;;;;;2.03;100.00;102188.50;5093119;28;21039;-72
2022/01/26 01:39:11;;;;;;;3.60;3.33;;;;;;;2.00;100.00;102197.81;5093531;28;20447;-72
2022/01/26 01:41:38;;;;;;;8.57;5.73;;;;;;;1.98;100.00;102191.78;5093474;28;20687;-73
2022/01/26 01:44:05;;;;;;;9.43;5.07;;;;;;;1.97;100.00;102184.75;5090963;28;20198;-72
2022/01/26 01:46:31;;;;;;;15.03;8.23;;;;;;;1.94;100.00;102189.75;5091805;28;20455;-72
2022/01/26 01:48:57;;;;;;;5.77;4.93;;;;;;;1.90;100.00;102183.13;5093130;28;20182;-72
2022/01/26 01:51:28;;;;;;;8.43;6.50;;;;;;;1.86;100.00;102196.16;5093355;28;20770;-72
2022/01/26 01:53:54;;;;;;;2.73;2.50;;;;;;;1.84;100.00;102190.16;5093405;28;20669;-72
2022/01/26 01:56:24;;;;;;;8.90;4.70;;;;;;;1.82;100.00;102183.34;5092887;28;20463;-72
2022/01/26 01:58:50;;;;;;;9.57;6.47;;;;;;;1.80;100.00;102180.84;5091774;28;20545;-72
2022/01/26 02:01:16;;;;;;;7.17;5.23;;;;;;;1.82;100.00;102183.34;5092879;28;20427;-73
2022/01/26 02:03:41;;;;;;;2.90;2.43;;;;;;;1.82;100.00;102169.88;5093115;28;20177;-72
2022/01/26 02:06:07;;;;;;;3.07;1.80;;;;;;;1.75;100.00;102159.94;5091371;28;20288;-72
2022/01/26 02:08:33;;;;;;;5.03;4.13;;;;;;;1.71;100.00;102156.00;5093063;28;20637;-72
2022/01/26 02:10:58;;;;;;;2.87;2.00;;;;;;;1.69;100.00;102160.75;5092897;28;20174;-72
2022/01/26 02:13:29;;;;;;;1.90;1.80;;;;;;;1.74;100.00;102158.28;5092862;28;20424;-72
2022/01/26 02:51:20;;;;;;;2.83;1.90;;;;;;;1.73;100.00;102118.06;5092190;28;20458;-72
2022/01/26 03:04:15;;;;;;;4.10;2.70;;;;;;;1.67;100.00;102098.19;5092137;28;20758;-72
2022/01/26 03:09:24;;;;;;;15.47;8.67;;;;;;;1.68;100.00;102101.72;5092160;28;20412;-72
2022/01/26 03:11:49;;;;;;;4.13;3.60;;;;;;;1.64;100.00;102100.50;5091838;28;20557;-72
2022/01/26 03:17:38;;;;;;;3.57;3.37;;;;;;;1.67;100.00;102084.72;5091612;28;20209;-72
2022/01/26 03:19:52;;;;;;;4.27;3.30;;;;;;;1.65;100.00;102099.44;5091297;28;20420;-72
2022/01/26 03:30:20;;;;;;;4.33;3.93;;;;;;;1.59;100.00;102070.66;5092001;28;20408;-72
2022/01/26 03:35:16;;;;;;;4.07;3.67;;;;;;;1.60;100.00;102072.31;5091639;28;20419;-72
2022/01/26 03:37:52;;;;;;;6.97;6.27;;;;;;;1.59;100.00;102081.41;5091571;28;20427;-73
2022/01/26 03:40:18;;;;;;;1.93;1.83;;;;;;;1.59;100.00;102074.19;5091917;28;20396;-72
2022/01/26 03:42:44;;;;;;;12.07;8.10;;;;;;;1.61;100.00;102082.88;5098608;28;20899;-73
2022/01/26 03:45:09;;;;;;;10.37;7.97;;;;;;;1.62;100.00;102081.84;5094557;28;20516;-72
2022/01/26 03:47:35;;;;;;;18.40;9.73;;;;;;;1.70;100.00;102086.16;5092167;28;20174;-72
2022/01/26 03:50:00;;;;;;;18.83;8.80;;;;;;;1.73;100.00;102081.16;5091877;28;20208;-73
2022/01/26 03:52:25;;;;;;;22.57;7.47;;;;;;;1.65;100.00;102077.91;5090314;28;20547;-72
2022/01/26 03:54:51;;;;;;;4.70;2.47;;;;;;;1.63;100.00;102078.13;5091388;28;20217;-73
2022/01/26 03:57:16;;;;;;;13.23;8.23;;;;;;;1.60;100.00;102086.63;5089894;28;20228;-72
2022/01/26 03:59:42;;;;;;;5.30;3.80;;;;;;;1.64;100.00;102098.63;5091463;28;20213;-72
2022/01/26 04:02:07;;;;;;;15.00;5.73;;;;;;;1.61;100.00;102082.88;5091135;28;20276;-73
2022/01/26 04:04:40;;;;;;;10.30;5.40;;;;;;;1.62;100.00;102086.41;5089645;28;20174;-72
2022/01/26 04:07:05;;;;;;;13.93;7.30;;;;;;;1.64;100.00;102095.94;5088977;28;20185;-72
2022/01/26 04:09:31;;;;;;;6.63;4.70;;;;;;;1.68;100.00;102097.16;5089675;28;20177;-72
2022/01/26 04:11:56;;;;;;;12.17;5.87;;;;;;;1.67;100.00;102100.88;5076902;28;20658;-72
2022/01/26 04:14:27;;;;;;;14.00;9.57;;;;;;;1.69;100.00;102106.06;5077743;28;20487;-73
2022/01/26 04:16:52;;;;;;;15.60;7.90;;;;;;;1.73;100.00;102120.75;5077230;28;20209;-72
2022/01/26 04:19:19;;;;;;;7.27;5.47;;;;;;;1.72;100.00;102111.03;5069330;28;20789;-72
2022/01/26 04:21:58;;;;;;;16.10;8.23;;;;;;;1.70;100.00;102094.25;5070513;28;20174;-72
2022/01/26 04:24:33;;;;;;;12.93;5.73;;;;;;;1.64;100.00;102098.63;5088088;28;20843;-72
2022/01/26 04:27:04;;;;;;;24.53;10.33;;;;;;;1.62;100.00;102114.16;5090441;28;20419;-72
2022/01/26 04:29:32;;;;;;;30.53;9.87;;;;;;;1.65;100.00;102111.06;5090457;28;20420;-73
2022/01/26 04:31:59;;;;;;;11.40;6.47;;;;;;;1.64;100.00;102125.56;5089664;28;20197;-72
2022/01/26 04:34:26;;;;;;;8.33;7.03;;;;;;;1.61;100.00;102117.91;5082290;28;20637;-72
2022/01/26 04:36:58;;;;;;;4.37;4.13;;;;;;;1.62;100.00;102116.03;5090172;28;21010;-72
2022/01/26 04:39:35;;;;;;;8.20;5.70;;;;;;;1.60;100.00;102104.66;5090431;28;20460;-72
2022/01/26 04:42:28;;;;;;;8.13;6.40;;;;;;;1.54;100.00;102100.91;5090362;28;20412;-73
2022/01/26 04:44:56;;;;;;;11.33;6.00;;;;;;;1.47;100.00;102089.34;5089893;28;20419;-72
2022/01/26 04:47:22;;;;;;;15.07;8.20;;;;;;;1.45;100.00;102086.88;5090492;28;20420;-72
2022/01/26 04:49:47;;;;;;;10.30;6.87;;;;;;;1.45;100.00;102077.97;5088919;28;20415;-73
2022/01/26 04:52:12;;;;;;;8.93;5.43;;;;;;;1.45;100.00;102067.19;5088827;28;20533;-72
2022/01/26 04:54:38;;;;;;;13.87;7.40;;;;;;;1.44;100.00;102062.81;5083101;28;20175;-72
2022/01/26 04:57:03;;;;;;;3.27;3.07;;;;;;;1.43;100.00;102070.06;5084933;28;20223;-72
2022/01/26 04:59:29;;;;;;;23.37;10.00;;;;;;;1.45;100.00;102073.41;5090078;28;20645;-72
2022/01/26 05:01:54;;;;;;;14.40;10.20;;;;;;;1.47;100.00;102074.00;5090228;28;20223;-72
2022/01/26 05:04:19;;;;;;;5.07;4.70;;;;;;;1.44;100.00;102065.50;5090129;28;20680;-72
2022/01/26 05:06:45;;;;;;;24.03;7.93;;;;;;;1.41;100.00;102060.53;5089898;28;20636;-73
2022/01/26 05:09:10;;;;;;;22.60;10.63;;;;;;;1.42;100.00;102056.81;5088880;28;20649;-73
2022/01/26 05:11:41;;;;;;;20.77;11.17;;;;;;;1.44;100.00;102062.81;5090269;28;20170;-72
2022/01/26 05:14:07;;;;;;;18.37;8.97;;;;;;;1.43;100.00;102067.38;5090237;28;20197;-72
2022/01/26 05:16:33;;;;;;;39.03;9.87;;;;;;;1.39;100.00;102085.00;5088491;28;20554;-72
2022/01/26 05:18:59;;;;;;;2.97;2.77;;;;;;;1.35;100.00;102072.16;5092053;28;20177;-72
2022/01/26 05:21:27;;;;;;;10.33;6.20;;;;;;;1.31;100.00;102076.31;5093676;28;20974;-74
2022/01/26 05:23:52;;;;;;;4.57;4.17;;;;;;;1.30;100.00;102075.50;5093850;28;20779;-72
2022/01/26 05:26:17;;;;;;;16.70;8.57;;;;;;;1.28;100.00;102079.41;5093560;28;20416;-73
2022/01/26 05:28:43;;;;;;;13.77;5.27;;;;;;;1.25;100.00;102074.47;5092396;28;20181;-72
2022/01/26 05:31:08;;;;;;;8.53;7.10;;;;;;;1.24;100.00;102070.94;5093630;28;20589;-72
2022/01/26 05:33:33;;;;;;;10.73;6.83;;;;;;;1.21;100.00;102063.28;5093641;28;20257;-72
2022/01/26 05:35:59;;;;;;;13.43;8.40;;;;;;;1.22;100.00;102058.72;5091253;28;20229;-72
2022/01/26 05:38:24;;;;;;;9.43;3.27;;;;;;;1.18;100.00;102055.63;5085171;28;20177;-72
2022/01/26 05:40:50;;;;;;;8.50;5.47;;;;;;;1.17;100.00;102056.69;5093554;28;20205;-72
2022/01/26 05:43:16;;;;;;;2.13;2.03;;;;;;;1.19;100.00;102055.44;5093474;28;20174;-72
2022/01/26 05:45:46;;;;;;;10.33;5.10;;;;;;;1.18;100.00;102052.94;5091927;28;20449;-72
2022/01/26 05:48:13;;;;;;;13.13;7.43;;;;;;;1.16;100.00;102080.06;5093363;28;20234;-72
2022/01/26 05:50:38;;;;;;;6.90;4.20;;;;;;;1.13;100.00;102056.25;5093246;28;20411;-72
2022/01/26 05:53:04;;;;;;;9.90;5.37;;;;;;;1.14;100.00;102044.44;5093435;28;20415;-72
2022/01/26 05:55:30;;;;;;;3.90;0.93;;;;;;;1.12;100.00;102057.28;5093181;28;20181;-72
2022/01/26 05:57:55;;;;;;;7.77;6.67;;;;;;;1.14;100.00;102046.31;5093166;28;20177;-72
2022/01/26 06:00:21;;;;;;;31.37;8.60;;;;;;;1.13;100.00;102053.56;5093286;28;20174;-72
2022/01/26 06:02:46;;;;;;;4.77;3.90;;;;;;;1.13;100.00;102041.97;5093310;28;20174;-73
2022/01/26 06:05:12;;;;;;;11.50;4.03;;;;;;;1.12;100.00;102043.81;5091734;28;20178;-72
2022/01/26 06:07:37;;;;;;;6.63;5.97;;;;;;;1.12;100.00;102043.00;5091893;28;20539;-72
2022/01/26 06:10:04;;;;;;;8.43;5.63;;;;;;;1.09;100.00;102040.72;5093166;28;20202;-72
2022/01/26 06:12:33;;;;;;;2.03;1.60;;;;;;;1.06;100.00;102033.91;5093145;28;20177;-72
2022/01/26 06:14:59;;;;;;;5.80;4.37;;;;;;;1.06;100.00;102035.78;5091798;28;20451;-72
2022/01/26 06:17:24;;;;;;;14.80;6.57;;;;;;;1.07;100.00;102037.44;5092861;28;20463;-72
2022/01/26 06:19:50;;;;;;;16.40;7.37;;;;;;;1.04;100.00;102037.84;5092938;28;20418;-72
2022/01/26 06:22:15;;;;;;;21.00;7.60;;;;;;;1.04;100.00;102032.47;5091620;28;20172;-73
2022/01/26 06:24:41;;;;;;;11.43;4.17;;;;;;;1.03;100.00;102031.66;5092698;28;20652;-73
2022/01/26 06:27:06;;;;;;;9.87;6.67;;;;;;;1.03;100.00;102034.34;5091562;28;20256;-72
2022/01/26 06:29:32;;;;;;;9.43;7.43;;;;;;;0.96;100.00;102040.75;5092069;28;20182;-72
2022/01/26 06:31:57;;;;;;;6.10;5.50;;;;;;;0.97;100.00;102045.09;5092768;28;20173;-73
2022/01/26 06:34:23;;;;;;;5.50;3.03;;;;;;;0.95;100.00;102031.03;5092665;28;20170;-72
2022/01/26 06:36:48;;;;;;;3.90;3.60;;;;;;;0.95;100.00;102042.59;5092753;28;20198;-72
2022/01/26 06:39:14;;;;;;;5.07;4.67;;;;;;;0.94;100.00;102037.44;5092583;28;20174;-72
2022/01/26 06:41:47;;;;;;;6.07;4.30;;;;;;;0.94;100.00;102035.56;5091278;28;20269;-72
2022/01/26 06:44:23;;;;;;;15.13;7.43;;;;;;;0.93;100.00;102033.09;5092514;28;20165;-73
2022/01/26 06:47:01;;;;;;;9.03;5.60;;;;;;;0.93;100.00;102022.34;5092191;28;20435;-72
2022/01/26 06:49:30;;;;;;;34.93;10.33;;;;;;;0.94;100.00;102045.50;5092439;28;20422;-72
2022/01/26 06:51:56;;;;;;;24.33;11.30;;;;;;;0.98;100.00;102044.88;5091023;28;20416;-72
2022/01/26 06:54:22;;;;;;;36.70;12.50;;;;;;;1.00;100.00;102036.59;5091006;28;20432;-72
2022/01/26 06:56:48;;;;;;;32.30;11.83;;;;;;;1.00;100.00;102040.09;5092105;28;20463;-72
2022/01/26 06:59:13;;;;;;;4.70;4.27;;;;;;;1.01;100.00;102039.06;5092026;28;20769;-72
2022/01/26 07:01:40;;;;;;;4.23;3.07;;;;;;;1.00;100.00;102050.03;5092202;28;20284;-72
2022/01/26 07:04:06;;;;;;;11.13;5.00;;;;;;;0.97;100.00;102050.47;5090828;28;20235;-72
2022/01/26 07:06:31;;;;;;;17.13;6.83;;;;;;;0.97;100.00;102047.78;5091903;28;20848;-72
2022/01/26 07:08:57;;;;;;;14.50;4.93;;;;;;;0.96;100.00;102040.75;5092259;28;20190;-72
2022/01/26 07:11:23;;;;;;;11.07;6.20;;;;;;;0.96;100.00;102051.50;5091919;28;20189;-72
2022/01/26 07:13:51;;;;;;;14.90;9.20;;;;;;;0.96;100.00;102057.72;5090678;28;20182;-73
2022/01/26 07:21:44;;;;;;;26.30;8.43;;;;;;;1.03;100.00;102069.31;5092047;28;20411;-72
2022/01/26 07:24:10;;;;;;;12.90;6.80;;;;;;;1.04;100.00;102064.75;5090324;28;20920;-72
2022/01/26 07:26:37;;;;;;;15.90;7.60;;;;;;;1.03;100.00;102066.63;5090178;28;20196;-72
2022/01/26 07:29:11;;;;;;;30.23;9.07;;;;;;;1.03;100.00;102047.78;5091656;28;20173;-72
2022/01/26 07:31:42;;;;;;;35.90;12.27;;;;;;;1.00;100.00;102029.34;5089604;28;20426;-72
2022/01/26 07:34:08;;;;;;;3.87;3.33;;;;;;;1.00;100.00;102017.75;5066482;28;20429;-72
2022/01/26 07:36:34;;;;;;;11.87;9.13;;;;;;;0.93;100.00;101996.25;5069095;28;20512;-73
2022/01/26 07:39:06;;;;;;;30.60;11.03;;;;;;;0.94;100.00;101989.00;5078277;28;20465;-72
2022/01/26 07:41:32;;;;;;;11.50;6.77;;;;;;;0.92;100.00;102001.84;5070268;28;20231;-72
2022/01/26 07:43:57;;;;;;;18.10;6.47;;;;;;;0.95;100.00;102012.19;5069854;28;20421;-72
2022/01/26 07:46:24;;;;;;;8.50;3.67;;;;;;;0.90;100.00;102012.81;5070888;28;20175;-72
2022/01/26 07:48:49;;;;;;;4.87;4.47;;;;;;;0.87;100.00;102010.56;5061706;28;20685;-72
2022/01/26 07:51:15;;;;;;;8.53;7.20;;;;;;;0.83;100.00;102015.50;5087659;28;20428;-72
2022/01/26 07:53:40;;;;;;;15.67;9.23;;;;;;;0.83;100.00;102028.94;5091336;28;20174;-73
2022/01/26 07:56:06;;;;;;;11.07;6.67;;;;;;;0.86;100.00;102035.78;5087373;28;20665;-72
2022/01/26 07:58:31;;;;;;;3.00;2.73;;;;;;;0.84;100.00;102027.91;5082657;28;20174;-76
2022/01/26 08:00:57;;;;;;;16.73;9.40;;;;;;;0.87;100.00;102038.28;5089834;28;20166;-74
2022/01/26 08:03:22;;;;;;;18.00;6.23;;;;;;;0.85;100.00;102028.75;5089795;28;20553;-73
2022/01/26 08:05:48;;;;;;;15.80;7.37;;;;;;;0.87;100.00;102032.91;5089567;28;20428;-73
2022/01/26 08:08:13;;;;;;;19.53;9.13;;;;;;;0.88;100.00;102034.56;5089896;28;20174;-72
2022/01/26 08:10:40;;;;;;;28.87;9.90;;;;;;;0.84;100.00;102024.41;5079129;28;20179;-73
2022/01/26 08:13:06;;;;;;;31.93;11.53;;;;;;;0.79;100.00;102029.56;5069419;28;20553;-73
2022/01/26 08:15:31;;;;;;;11.27;7.50;;;;;;;0.78;100.00;102026.06;5069081;28;20429;-72
2022/01/26 08:17:58;;;;;;;22.07;12.37;;;;;;;0.83;100.00;102031.63;5070865;28;20170;-72
2022/01/26 08:20:24;;;;;;;19.73;7.67;;;;;;;0.83;100.00;102025.44;5070996;28;20177;-72
2022/01/26 08:22:55;;;;;;;16.03;7.50;;;;;;;0.85;100.00;102026.88;5070835;28;20816;-73
2022/01/26 08:25:22;;;;;;;21.57;7.07;;;;;;;0.89;100.00;102032.69;5069141;28;20413;-72
2022/01/26 08:27:54;;;;;;;30.73;11.27;;;;;;;0.88;100.00;102039.94;5074972;28;20481;-73
2022/01/26 08:30:20;;;;;;;34.27;12.13;;;;;;;0.87;100.00;102049.03;5089363;28;20416;-72
2022/01/26 08:32:45;;;;;;;23.77;10.40;;;;;;;0.83;100.00;102052.34;5089555;28;20416;-72
2022/01/26 08:35:11;;;;;;;18.83;11.10;;;;;;;0.83;100.00;102041.56;5089250;28;20661;-72
2022/01/26 08:37:36;;;;;;;32.90;11.07;;;;;;;0.81;100.00;102033.72;5090607;28;20210;-72
2022/01/26 08:40:03;;;;;;;24.70;9.03;;;;;;;0.83;100.00;102057.72;5089339;28;20173;-72
2022/01/26 08:42:29;;;;;;;16.43;9.17;;;;;;;0.84;100.00;102040.53;5090683;28;20170;-72
2022/01/26 08:44:57;;;;;;;21.90;8.03;;;;;;;0.83;100.00;102037.03;5088979;28;20439;-74
2022/01/26 08:47:23;;;;;;;32.43;11.43;;;;;;;0.85;100.00;102044.88;5067616;28;20187;-72
2022/01/26 08:49:48;;;;;;;21.50;9.63;;;;;;;0.85;100.00;102048.41;5074867;28;20561;-72
2022/01/26 08:52:14;;;;;;;45.67;13.67;;;;;;;0.86;100.00;102044.66;5084672;28;20235;-73
2022/01/26 08:54:39;;;;;;;42.67;16.10;;;;;;;0.82;100.00;102040.75;5079166;28;20177;-72
2022/01/26 08:57:05;;;;;;;26.20;12.97;;;;;;;0.84;100.00;102044.06;5089213;28;20201;-72
2022/01/26 08:59:30;;;;;;;34.70;8.70;;;;;;;0.87;100.00;102046.34;5093794;28;20806;-72
2022/01/26 09:01:55;;;;;;;21.73;8.57;;;;;;;0.91;100.00;102048.63;5093328;28;20173;-72
2022/01/26 09:04:21;;;;;;;30.77;13.37;;;;;;;0.93;100.00;102051.94;5094468;28;20313;-72
2022/01/26 09:06:58;;;;;;;33.53;11.87;;;;;;;0.93;100.00;102049.25;5094282;28;20555;-72
2022/01/26 09:09:26;;;;;;;24.80;10.23;;;;;;;0.94;100.00;102058.97;5094445;28;20173;-72
2022/01/26 09:11:54;;;;;;;16.13;11.20;;;;;;;0.91;100.00;102048.63;5092986;28;20622;-73
2022/01/26 09:14:22;;;;;;;45.47;16.63;;;;;;;0.90;100.00;102053.19;5094247;28;20422;-72
2022/01/26 09:16:51;;;;;;;28.87;11.80;;;;;;;0.90;100.00;102045.09;5092668;28;20464;-74
2022/01/26 09:19:28;;;;;;;28.50;8.90;;;;;;;0.91;100.00;102027.09;5092905;28;20174;-72
2022/01/26 09:21:59;;;;;;;53.13;16.40;;;;;;;0.93;100.00;102047.38;5094200;28;20411;-72
2022/01/26 09:24:29;;;;;;;29.83;14.50;;;;;;;0.93;100.00;102047.38;5093875;28;20971;-73
2022/01/26 09:26:55;;;;;;;20.30;10.20;;;;;;;0.96;100.00;102046.94;5093807;28;20412;-72
2022/01/26 09:29:21;;;;;;;52.53;19.00;;;;;;;0.97;100.00;102062.06;5093893;28;20507;-72
2022/01/26 09:31:47;;;;;;;11.87;8.90;;;;;;;0.99;100.00;102059.97;5093882;28;20490;-72
2022/01/26 09:34:21;;;;;;;13.17;8.87;;;;;;;0.96;100.00;102059.56;5093947;28;20166;-72
2022/01/26 09:36:47;;;;;;;23.67;12.60;;;;;;;0.94;100.00;102067.84;5088596;28;20706;-72
2022/01/26 09:39:15;;;;;;;31.97;13.67;;;;;;;0.95;100.00;102076.75;5067235;28;20432;-76
2022/01/26 09:41:40;;;;;;;42.07;16.50;;;;;;;0.96;100.00;102071.16;5076739;28;20169;-76
2022/01/26 09:44:06;;;;;;;15.00;8.43;;;;;;;0.93;100.00;102074.28;5072826;28;20465;-75
2022/01/26 09:46:32;;;;;;;25.00;14.33;;;;;;;0.90;100.00;102063.94;5071810;28;20196;-76
2022/01/26 09:48:58;;;;;;;35.47;13.60;;;;;;;0.88;100.00;102074.91;5070168;28;20417;-75
2022/01/26 09:51:24;;;;;;;18.97;11.97;;;;;;;0.86;100.00;102081.50;5082850;28;20261;-76
2022/01/26 09:54:11;;;;;;;17.10;8.10;;;;;;;0.86;100.00;102081.50;5092344;28;20507;-72
2022/01/26 09:56:36;;;;;;;13.07;7.47;;;;;;;0.85;100.00;102086.06;5093187;28;20416;-75
2022/01/26 09:59:02;;;;;;;40.53;16.77;;;;;;;0.80;100.00;102079.66;5092061;28;20416;-75
2022/01/26 10:01:38;;;;;;;34.37;10.23;;;;;;;0.82;100.00;102082.97;5076814;28;20193;-73
2022/01/26 10:04:03;;;;;;;13.50;6.53;;;;;;;0.83;100.00;102095.38;5072472;28;20220;-71
2022/01/26 10:06:30;;;;;;;17.73;11.80;;;;;;;0.81;100.00;102084.00;5091589;28;20424;-71
2022/01/26 10:09:14;;;;;;;18.37;11.87;;;;;;;0.82;100.00;102083.78;5091951;28;20170;-71
2022/01/26 10:17:26;;;;;;;50.07;13.73;;;;;;;0.74;100.00;102102.84;5066144;28;20982;-71
2022/01/26 10:19:58;;;;;;;29.30;12.17;;;;;;;0.71;100.00;102092.47;5057039;28;20437;-71
2022/01/26 10:22:29;;;;;;;21.03;10.43;;;;;;;0.75;100.00;102104.50;5052676;28;20432;-71
2022/01/26 10:25:23;;;;;;;17.63;8.90;;;;;;;0.75;100.00;102095.59;5050741;28;20438;-71
2022/01/26 10:27:50;;;;;;;25.53;14.23;;;;;;;0.72;100.00;102106.75;5047123;28;20429;-71
2022/01/26 10:30:18;;;;;;;6.77;6.07;;;;;;;0.72;100.00;102109.44;5051334;28;20426;-71
2022/01/26 10:32:45;;;;;;;19.37;12.47;;;;;;;0.74;100.00;102104.69;5051134;28;20532;-71
2022/01/26 10:35:14;;;;;;;34.83;16.63;;;;;;;0.72;100.00;102099.50;5052447;28;20422;-71
2022/01/26 10:37:47;;;;;;;30.37;12.47;;;;;;;0.70;100.00;102096.19;5052496;28;20461;-71
2022/01/26 10:40:18;;;;;;;38.70;12.63;;;;;;;0.69;100.00;102086.47;5051221;28;20422;-70
2022/01/26 10:42:54;;;;;;;16.47;10.17;;;;;;;0.74;100.00;102077.81;5051260;28;20414;-71
2022/01/26 10:45:31;;;;;;;17.20;7.57;;;;;;;0.76;100.00;102079.25;5050959;28;20440;-71
2022/01/26 10:48:16;;;;;;;31.87;11.57;;;;;;;0.80;100.00;102076.97;5052810;28;20493;-71
2022/01/26 10:53:15;;;;;;;4.93;4.47;;;;;;;0.82;100.00;102099.94;5057148;28;20418;-71
2022/01/26 10:55:41;;;;;;;17.37;10.17;;;;;;;0.84;100.00;102099.72;5052781;28;20500;-71
2022/01/26 10:58:07;;;;;;;20.23;7.83;;;;;;;0.91;100.00;102092.50;5051088;28;20432;-71
2022/01/26 11:00:36;;;;;;;9.63;5.63;;;;;;;0.92;100.00;102093.31;5052711;28;20171;-71
2022/01/26 11:03:03;;;;;;;16.50;10.30;;;;;;;0.91;100.00;102089.81;5052242;28;20422;-73
2022/01/26 11:05:28;;;;;;;9.57;7.53;;;;;;;0.94;100.00;102085.88;5050691;28;20418;-71
2022/01/26 11:07:57;;;;;;;51.53;16.13;;;;;;;0.98;100.00;102090.63;5052400;28;20414;-70
2022/01/26 11:10:31;;;;;;;29.33;7.90;;;;;;;1.01;100.00;102087.50;5050533;28;20210;-71
2022/01/26 11:12:56;;;;;;;22.57;11.53;;;;;;;1.01;100.00;102079.44;5051858;28;20421;-70
2022/01/26 11:15:23;;;;;;;14.43;6.93;;;;;;;1.05;100.00;102078.00;5051553;28;20521;-71
2022/01/26 11:17:49;;;;;;;13.83;9.47;;;;;;;1.06;100.00;102065.38;5051741;28;20222;-71
2022/01/26 11:20:32;;;;;;;28.37;6.37;;;;;;;1.06;100.00;102068.91;5051655;28;20418;-70
2022/01/26 11:23:03;;;;;;;23.77;12.97;;;;;;;1.07;100.00;102070.53;5051865;28;20175;-71
2022/01/26 11:25:39;;;;;;;21.07;7.43;;;;;;;1.11;100.00;102054.81;5049801;28;20422;-71
2022/01/26 11:28:15;;;;;;;32.70;10.77;;;;;;;1.08;100.00;102053.38;5051569;28;20445;-71
2022/01/26 11:30:40;;;;;;;30.77;9.50;;;;;;;1.09;100.00;102049.63;5050258;28;20413;-71
2022/01/26 11:33:18;;;;;;;14.80;6.03;;;;;;;1.06;100.00;102049.22;5050256;28;20555;-71
2022/01/26 11:35:46;;;;;;;34.37;12.97;;;;;;;1.05;100.00;102044.88;5051233;28;20168;-71
2022/01/26 11:46:54;;;;;;;11.13;7.37;;;;;;;1.04;100.00;102056.69;5050275;28;20929;-71
2022/01/26 11:49:43;;;;;;;9.43;5.30;;;;;;;1.06;100.00;102057.31;5049821;28;20417;-71
2022/01/26 11:52:23;;;;;;;8.50;5.17;;;;;;;1.07;100.00;102038.25;5051037;28;20410;-71
2022/01/26 11:54:52;;;;;;;29.37;15.03;;;;;;;1.08;100.00;102044.47;5050407;28;20424;-71
2022/01/26 11:57:20;;;;;;;11.90;7.97;;;;;;;1.04;100.00;102043.22;5049734;28;20534;-71
2022/01/26 11:59:58;;;;;;;16.33;9.47;;;;;;;1.07;100.00;102029.34;5050900;28;20482;-71
2022/01/26 12:02:50;;;;;;;34.77;14.13;;;;;;;1.06;100.00;102025.84;5049786;28;20783;-71
2022/01/26 12:05:20;;;;;;;12.03;5.00;;;;;;;1.10;100.00;102026.25;5050691;28;20178;-71
2022/01/26 12:07:51;;;;;;;10.37;8.77;;;;;;;1.09;100.00;102028.09;5051005;28;20781;-71
2022/01/26 12:10:26;;;;;;;17.53;10.13;;;;;;;1.11;100.00;102030.56;5049490;28;20445;-71
2022/01/26 12:13:02;;;;;;;12.30;7.27;;;;;;;1.16;100.00;102022.72;5050604;28;20421;-71
2022/01/26 12:15:32;;;;;;;56.80;22.43;;;;;;;1.13;100.00;101997.03;5048978;28;20919;-71
2022/01/26 12:32:14;;;;;;;17.30;8.93;;;;;;;1.16;100.00;101958.94;5050623;28;20393;-71
2022/01/26 12:34:45;;;;;;;19.10;7.63;;;;;;;1.15;100.00;101965.34;5050540;28;20421;-71
2022/01/26 12:45:24;;;;;;;55.50;20.63;;;;;;;1.17;100.00;101940.94;5050148;28;20418;-71
2022/01/26 12:47:51;;;;;;;30.47;14.50;;;;;;;1.17;100.00;101949.84;5048835;28;20425;-73
2022/01/26 12:50:18;;;;;;;33.13;13.47;;;;;;;1.22;100.00;101959.97;5050138;28;20910;-71
2022/01/26 12:52:48;;;;;;;35.30;12.90;;;;;;;1.21;100.00;101949.41;5049064;28;20671;-71
2022/01/26 12:55:28;;;;;;;45.07;15.67;;;;;;;1.23;100.00;101948.16;5047994;28;20206;-70
2022/01/26 12:57:55;;;;;;;39.37;11.87;;;;;;;1.23;100.00;101942.75;5049972;28;20500;-71
2022/01/26 13:00:24;;;;;;;30.70;12.70;;;;;;;1.26;100.00;101938.81;5049928;28;20425;-70
2022/01/26 13:02:50;;;;;;;27.47;10.40;;;;;;;1.25;100.00;101927.22;5050108;28;20417;-70
2022/01/26 13:05:23;;;;;;;8.43;7.47;;;;;;;1.28;100.00;101921.41;5049714;28;20240;-70
2022/01/26 13:07:59;;;;;;;9.20;6.50;;;;;;;1.30;100.00;101926.56;5050283;28;20413;-71
2022/01/26 13:10:24;;;;;;;34.43;18.83;;;;;;;1.28;100.00;101909.81;5048654;28;20422;-71
2022/01/26 13:12:49;;;;;;;24.30;9.63;;;;;;;1.29;100.00;101927.63;5050066;28;20432;-71
2022/01/26 13:15:25;;;;;;;31.43;17.43;;;;;;;1.33;100.00;101928.88;5048411;28;20171;-71
2022/01/26 13:18:05;;;;;;;33.67;12.63;;;;;;;1.35;100.00;101919.53;5049790;28;20314;-70
2022/01/26 13:50:37;;;;;;;11.57;10.60;;;;;;;1.44;100.00;101920.09;5053227;28;20432;-71
2022/01/26 13:52:44;;;;;;;19.40;10.13;;;;;;;1.45;100.00;101919.09;5048407;28;20179;-72
2022/01/26 14:00:47;;;;;;;24.57;10.37;;;;;;;1.41;100.00;101913.28;5052081;28;20476;-74
2022/01/26 14:03:16;;;;;;;13.07;9.47;;;;;;;1.40;100.00;101908.09;5052766;28;20410;-72
2022/01/26 14:05:41;;;;;;;36.90;16.77;;;;;;;1.38;100.00;101912.88;5052615;28;20500;-73
2022/01/26 14:08:06;;;;;;;47.77;20.43;;;;;;;1.40;100.00;101902.72;5051641;28;20505;-74
2022/01/26 14:10:33;;;;;;;22.83;12.13;;;;;;;1.39;100.00;101912.66;5051381;28;20651;-72